Rhine, North Carolina
Current Conditions -  °F | °C
As of 12:55 AM on Friday 28 Nov 2014 (Local Time) from KGEV Reporting Station
Light Snow Light Snow  
Wind Chill: 11°   Ceiling: 2100
Heat Index: 23°   Visibility: 10mi
Dew Point: 13°   Wind: 15mph
Humidity: 64%   Direction: 320°NW
Pressure: 30.17"   Gusts: 24mph
Location:  36.4009°N, 81.4072°W
Report Text: KGEV 280555Z AUTO 32013G21KT 10SM -SN BKN021 OVC030 M05/M11 A3017 RMK AO2 T10481106 11022 21049 400211049
Loading
Personal Weather Stations






























Interactive Weather Map New forecast layout! Learn more

10-Day Weather Forecast

Advertisements
Track Severe Weather on mobile